createdAt,value
2023-05-14T00:09:32.326Z,66.54
2023-05-14T00:11:58.773Z,66.78
2023-05-14T00:14:25.228Z,67.01
2023-05-14T00:16:51.685Z,67.41
2023-05-14T00:19:18.240Z,67.84
2023-05-14T00:21:44.794Z,67.39
2023-05-14T00:24:11.280Z,67.00
2023-05-14T00:26:37.809Z,67.31
2023-05-14T00:29:04.399Z,67.07
2023-05-14T00:31:30.923Z,67.41
2023-05-14T00:33:57.462Z,67.02
2023-05-14T00:36:24.025Z,67.31
2023-05-14T00:38:50.489Z,67.45
2023-05-14T00:41:16.941Z,67.87
2023-05-14T00:43:43.350Z,67.42
2023-05-14T00:46:09.989Z,67.70
2023-05-14T00:48:36.634Z,67.78
2023-05-14T00:51:03.439Z,67.77
2023-05-14T00:53:29.989Z,68.24
2023-05-14T00:55:56.821Z,67.77
2023-05-14T00:58:24.134Z,68.03
2023-05-14T01:00:50.782Z,67.88
2023-05-14T01:03:17.339Z,68.04
2023-05-14T01:06:07.095Z,68.29
2023-05-14T01:08:50.522Z,69.22
2023-05-14T01:11:24.652Z,69.21
2023-05-14T01:14:45.266Z,69.07
2023-05-14T01:17:15.232Z,69.05
2023-05-14T01:19:44.074Z,69.85
2023-05-14T01:22:11.660Z,69.69
2023-05-14T01:24:38.454Z,69.56
2023-05-14T01:27:26.521Z,69.74
2023-05-14T01:30:09.965Z,70.51
2023-05-14T01:32:38.074Z,70.37
2023-05-14T01:35:07.172Z,70.83
2023-05-14T01:37:34.732Z,70.36
2023-05-14T01:40:02.007Z,70.68
2023-05-14T01:42:29.055Z,71.25
2023-05-14T01:44:56.162Z,71.48
2023-05-14T01:47:22.580Z,71.65
2023-05-14T01:49:49.150Z,71.79
2023-05-14T01:52:15.622Z,71.74
2023-05-14T01:54:42.115Z,71.91
2023-05-14T01:57:08.568Z,72.27
2023-05-14T01:59:35.002Z,71.99
2023-05-14T02:02:01.494Z,72.48
2023-05-14T02:04:28.124Z,72.57
2023-05-14T02:06:54.601Z,73.43
2023-05-14T02:09:21.173Z,73.64
2023-05-14T02:11:47.674Z,74.05
2023-05-14T02:14:15.213Z,74.18
2023-05-14T02:16:41.984Z,73.78
2023-05-14T02:19:08.580Z,73.30
2023-05-14T02:21:35.388Z,73.94
2023-05-14T02:24:01.884Z,73.69
2023-05-14T02:26:28.329Z,73.50
2023-05-14T02:28:55.212Z,73.74
2023-05-14T02:31:21.769Z,73.27
2023-05-14T02:33:48.224Z,73.70
2023-05-14T02:36:14.681Z,73.73
2023-05-14T02:38:41.126Z,73.84
2023-05-14T02:41:07.581Z,73.55
2023-05-14T02:43:34.067Z,73.52
2023-05-14T02:46:00.565Z,73.85
2023-05-14T02:48:27.001Z,73.55
2023-05-14T02:50:53.401Z,74.28
2023-05-14T02:53:19.814Z,74.17
2023-05-14T02:55:46.285Z,74.41
2023-05-14T02:58:12.701Z,74.15
2023-05-14T03:00:39.190Z,73.88
2023-05-14T03:03:06.166Z,74.09
2023-05-14T03:05:33.146Z,74.21
2023-05-14T03:08:00.012Z,74.24
2023-05-14T03:10:26.683Z,74.50
2023-05-14T03:12:53.213Z,74.34
2023-05-14T03:15:19.763Z,73.93
2023-05-14T03:17:46.218Z,74.59
2023-05-14T03:20:13.110Z,74.07
2023-05-14T03:22:39.547Z,74.00
2023-05-14T03:25:06.318Z,74.13
2023-05-14T03:27:33.563Z,74.08
2023-05-14T03:30:00.727Z,74.04
2023-05-14T03:32:27.350Z,74.08
2023-05-14T03:34:53.842Z,73.92
2023-05-14T03:37:20.381Z,73.95
2023-05-14T03:39:46.806Z,74.04
2023-05-14T03:42:13.319Z,73.29
2023-05-14T03:44:39.928Z,72.77
2023-05-14T03:47:06.484Z,72.68
2023-05-14T03:49:33.192Z,72.74
2023-05-14T03:51:59.645Z,71.97
2023-05-14T03:54:26.599Z,71.98
2023-05-14T03:56:53.069Z,71.17
2023-05-14T03:59:19.479Z,71.39
2023-05-14T04:01:45.932Z,71.26
2023-05-14T04:04:12.547Z,71.25
2023-05-14T04:06:39.066Z,71.78
2023-05-14T04:09:05.500Z,71.90
2023-05-14T04:11:31.957Z,70.89
2023-05-14T04:13:58.434Z,70.98
2023-05-14T04:16:24.981Z,70.47
2023-05-14T04:18:51.505Z,70.44
2023-05-14T04:21:18.077Z,70.28
2023-05-14T04:23:44.570Z,69.98
2023-05-14T04:26:11.227Z,69.72
2023-05-14T04:28:37.729Z,69.81
2023-05-14T04:31:04.377Z,69.47
2023-05-14T04:33:31.005Z,69.10
2023-05-14T04:35:57.483Z,69.48
2023-05-14T04:38:24.041Z,69.13
2023-05-14T04:40:50.680Z,69.40
2023-05-14T04:43:17.503Z,69.72
2023-05-14T04:45:44.169Z,69.27
2023-05-14T04:48:10.738Z,69.99
2023-05-14T04:50:37.258Z,69.10
2023-05-14T04:53:03.820Z,69.54
2023-05-14T04:55:30.327Z,69.65
2023-05-14T04:57:56.852Z,69.09
2023-05-14T05:00:23.588Z,68.76
2023-05-14T05:02:50.653Z,68.61
2023-05-14T05:05:17.157Z,68.20
2023-05-14T05:07:43.607Z,67.79
2023-05-14T05:10:10.193Z,67.13
2023-05-14T05:12:36.700Z,67.44
2023-05-14T05:15:03.412Z,65.76
2023-05-14T05:17:30.258Z,66.15
2023-05-14T05:19:57.074Z,65.24
2023-05-14T05:22:23.827Z,65.53
2023-05-14T05:24:50.332Z,64.74
2023-05-14T05:27:16.962Z,62.59
2023-05-14T05:29:44.676Z,61.98
2023-05-14T05:32:11.205Z,61.38
2023-05-14T05:34:37.832Z,61.43
2023-05-14T05:37:05.927Z,60.52
2023-05-14T05:39:34.792Z,60.15
2023-05-14T05:42:05.039Z,59.89
2023-05-14T05:44:31.518Z,57.78
2023-05-14T05:46:58.129Z,56.75
2023-05-14T05:49:24.611Z,56.57
2023-05-14T05:51:51.026Z,56.53
2023-05-14T05:54:17.602Z,54.81
2023-05-14T05:56:44.082Z,54.63
2023-05-14T05:59:10.516Z,54.14
2023-05-14T06:01:37.308Z,54.23
2023-05-14T06:04:06.156Z,53.40
2023-05-14T06:06:33.019Z,52.99
2023-05-14T06:08:59.564Z,51.84
2023-05-14T06:11:26.517Z,51.84
2023-05-14T06:13:53.338Z,51.48
2023-05-14T06:16:19.891Z,51.80
2023-05-14T06:18:47.039Z,51.72
2023-05-14T06:21:13.489Z,50.85
2023-05-14T06:23:39.990Z,50.85
2023-05-14T06:26:06.439Z,49.68
2023-05-14T06:28:32.875Z,49.57
2023-05-14T06:30:59.291Z,50.26
2023-05-14T06:33:30.698Z,51.16
2023-05-14T06:35:59.530Z,50.10
2023-05-14T06:38:25.999Z,50.75
2023-05-14T06:40:55.567Z,50.99
2023-05-14T06:43:22.509Z,50.84
2023-05-14T06:45:52.344Z,51.14
2023-05-14T06:48:19.923Z,51.03
2023-05-14T06:50:47.602Z,50.86
2023-05-14T06:53:14.708Z,51.02
2023-05-14T06:55:41.513Z,51.25
2023-05-14T06:58:08.614Z,50.05
2023-05-14T07:00:35.079Z,49.35
2023-05-14T07:03:01.594Z,49.27
2023-05-14T07:05:28.102Z,48.51
2023-05-14T07:07:54.688Z,48.76
2023-05-14T07:10:21.342Z,48.04
2023-05-14T07:12:47.898Z,47.72
2023-05-14T07:15:14.391Z,47.89
2023-05-14T07:17:41.272Z,47.31
2023-05-14T07:20:08.311Z,47.15
2023-05-14T07:22:34.766Z,46.33
2023-05-14T07:25:01.301Z,45.94
2023-05-14T07:27:27.790Z,45.77
2023-05-14T07:29:54.259Z,46.29
2023-05-14T07:32:20.824Z,45.63
2023-05-14T07:34:47.357Z,46.10
2023-05-14T07:37:13.866Z,46.44
2023-05-14T07:39:41.640Z,45.34
2023-05-14T07:42:08.163Z,44.89
2023-05-14T07:44:34.613Z,44.84
2023-05-14T07:47:01.152Z,44.82
2023-05-14T07:49:27.748Z,44.26
2023-05-14T07:51:54.199Z,43.21
2023-05-14T07:54:20.822Z,42.79
2023-05-14T07:56:47.247Z,42.39
2023-05-14T07:59:13.718Z,42.28
2023-05-14T08:01:40.564Z,42.84
2023-05-14T08:04:07.091Z,42.26
2023-05-14T08:06:34.019Z,42.52
2023-05-14T08:09:00.630Z,41.94
2023-05-14T08:11:27.138Z,41.34
2023-05-14T08:13:53.566Z,40.42
2023-05-14T08:16:20.061Z,39.64
2023-05-14T08:18:46.667Z,39.69
2023-05-14T08:21:13.128Z,39.87
2023-05-14T08:23:39.627Z,39.78
2023-05-14T08:26:06.163Z,39.88
2023-05-14T08:28:32.615Z,38.92
2023-05-14T08:30:59.136Z,39.12
2023-05-14T08:33:25.663Z,38.64
2023-05-14T08:35:53.276Z,38.83
2023-05-14T08:38:19.882Z,38.58
2023-05-14T08:40:56.277Z,38.61
2023-05-14T08:43:26.325Z,38.91
2023-05-14T08:45:58.704Z,38.05
2023-05-14T08:48:29.147Z,38.25
2023-05-14T08:50:56.090Z,37.50
2023-05-14T08:53:22.695Z,37.22
2023-05-14T08:55:51.251Z,37.27
2023-05-14T08:58:17.764Z,37.91
2023-05-14T09:00:44.330Z,37.96
2023-05-14T09:03:11.957Z,37.11
2023-05-14T09:05:39.151Z,36.79
2023-05-14T09:08:05.713Z,36.01
2023-05-14T09:10:32.636Z,36.15
2023-05-14T09:12:59.102Z,35.33
2023-05-14T09:15:29.117Z,35.04
2023-05-14T09:17:56.688Z,35.69
2023-05-14T09:20:24.777Z,34.89
2023-05-14T09:22:54.860Z,34.57
2023-05-14T09:25:27.444Z,33.45
2023-05-14T09:27:56.760Z,34.06
2023-05-14T09:30:26.724Z,33.89
2023-05-14T09:32:54.969Z,33.67
2023-05-14T09:35:23.565Z,34.03
2023-05-14T09:37:54.726Z,32.74
2023-05-14T09:40:24.128Z,32.80
2023-05-14T09:42:51.489Z,31.90
2023-05-14T09:45:18.252Z,32.29
2023-05-14T09:47:45.333Z,33.15
2023-05-14T09:50:12.392Z,32.49
2023-05-14T09:52:39.514Z,32.50
2023-05-14T09:55:06.941Z,32.59
2023-05-14T09:57:34.480Z,32.63
2023-05-14T10:00:01.118Z,32.15
2023-05-14T10:02:36.969Z,31.22
2023-05-14T10:05:06.306Z,31.45
2023-05-14T10:07:41.689Z,30.79
2023-05-14T10:10:13.734Z,31.02
2023-05-14T10:12:40.829Z,30.90
2023-05-14T10:15:17.140Z,30.33
2023-05-14T10:17:49.747Z,30.58
2023-05-14T10:20:17.650Z,29.90
2023-05-14T10:22:44.497Z,28.94
2023-05-14T10:25:11.545Z,29.31
2023-05-14T10:27:38.857Z,28.95
2023-05-14T10:30:14.685Z,29.56
2023-05-14T10:32:42.100Z,29.73
2023-05-14T10:35:22.216Z,30.00
2023-05-14T10:37:51.524Z,30.02
2023-05-14T10:40:19.304Z,28.55
2023-05-14T10:42:47.479Z,29.34
2023-05-14T10:45:15.659Z,30.31
2023-05-14T10:47:43.649Z,30.26
2023-05-14T10:50:15.210Z,31.03
2023-05-14T10:52:43.816Z,31.90
2023-05-14T10:55:14.618Z,32.17
2023-05-14T10:57:43.884Z,32.56
2023-05-14T11:00:12.657Z,32.89
2023-05-14T11:02:41.419Z,33.85
2023-05-14T11:05:11.377Z,34.21
2023-05-14T11:07:40.566Z,34.20
2023-05-14T11:10:13.315Z,34.31
2023-05-14T11:12:45.077Z,35.03
2023-05-14T11:15:14.052Z,37.03
2023-05-14T11:17:42.610Z,38.21
2023-05-14T11:20:10.553Z,36.12
2023-05-14T11:22:38.969Z,35.89
2023-05-14T11:25:06.668Z,34.70
2023-05-14T11:27:38.782Z,34.18
2023-05-14T11:30:06.824Z,33.65
2023-05-14T11:32:33.863Z,33.56
2023-05-14T11:35:00.786Z,33.29
2023-05-14T11:37:27.421Z,31.46
2023-05-14T11:39:56.043Z,31.85
2023-05-14T11:42:23.606Z,32.52
2023-05-14T11:44:52.150Z,32.83
2023-05-14T11:47:21.066Z,32.67
2023-05-14T11:49:48.763Z,32.14
2023-05-14T11:52:19.419Z,32.28
2023-05-14T11:54:46.721Z,32.24
2023-05-14T11:57:16.497Z,31.07
2023-05-14T11:59:43.268Z,31.12
2023-05-14T12:02:14.746Z,31.69
2023-05-14T12:04:42.889Z,30.96
2023-05-14T12:07:12.488Z,30.66
2023-05-14T12:09:44.201Z,31.35
2023-05-14T12:12:12.984Z,31.02
2023-05-14T12:14:42.624Z,31.05
2023-05-14T12:17:15.297Z,30.71
2023-05-14T12:19:43.334Z,30.74
2023-05-14T12:22:15.462Z,30.66
2023-05-14T12:24:43.714Z,31.15
2023-05-14T12:27:10.835Z,31.62
2023-05-14T12:29:41.290Z,31.65
2023-05-14T12:32:10.982Z,32.58
2023-05-14T12:34:38.664Z,32.57
2023-05-14T12:37:06.326Z,34.13
2023-05-14T12:39:34.616Z,32.73
2023-05-14T12:42:01.636Z,33.07
2023-05-14T12:44:28.618Z,32.53
2023-05-14T12:46:55.309Z,32.58
2023-05-14T12:49:21.816Z,32.12
2023-05-14T12:51:48.763Z,32.36
2023-05-14T12:54:16.156Z,32.16
2023-05-14T12:56:42.849Z,31.52
2023-05-14T12:59:09.608Z,31.79
2023-05-14T13:01:37.530Z,31.64
2023-05-14T13:04:05.450Z,31.81
2023-05-14T13:06:32.873Z,31.50
2023-05-14T13:09:01.696Z,31.68
2023-05-14T13:11:30.579Z,32.04
2023-05-14T13:13:57.662Z,32.08
2023-05-14T13:16:25.447Z,31.32
2023-05-14T13:18:52.031Z,31.17
2023-05-14T13:21:18.552Z,31.74
2023-05-14T13:23:45.088Z,31.85
2023-05-14T13:26:11.670Z,32.46
2023-05-14T13:28:38.292Z,30.95
2023-05-14T13:31:10.198Z,31.07
2023-05-14T13:33:38.544Z,31.21
2023-05-14T13:36:05.429Z,31.80
2023-05-14T13:38:32.107Z,31.70
2023-05-14T13:41:02.140Z,31.83
2023-05-14T13:43:33.310Z,32.12
2023-05-14T13:46:01.174Z,31.84
2023-05-14T13:48:28.168Z,32.34
2023-05-14T13:50:54.978Z,32.83
2023-05-14T13:53:23.279Z,31.92
2023-05-14T13:55:50.281Z,31.27
2023-05-14T13:58:16.964Z,31.99
2023-05-14T14:00:43.395Z,31.43
2023-05-14T14:03:09.969Z,31.66
2023-05-14T14:05:36.726Z,31.74
2023-05-14T14:08:13.082Z,31.24
2023-05-14T14:10:50.153Z,30.49
2023-05-14T14:13:17.077Z,29.49
2023-05-14T14:15:43.742Z,29.17
2023-05-14T14:18:10.283Z,29.94
2023-05-14T14:20:36.997Z,29.94
2023-05-14T14:23:03.558Z,30.69
2023-05-14T14:25:30.134Z,30.74
2023-05-14T14:27:57.242Z,31.32
2023-05-14T14:30:23.846Z,31.33
2023-05-14T14:32:50.842Z,32.20
2023-05-14T14:35:19.577Z,32.68
2023-05-14T14:37:49.177Z,32.10
2023-05-14T14:40:16.800Z,32.72
2023-05-14T14:42:43.605Z,32.31
2023-05-14T14:45:10.755Z,32.31
2023-05-14T14:47:37.227Z,32.73
2023-05-14T14:50:04.116Z,32.88
2023-05-14T14:52:30.639Z,32.91
2023-05-14T14:54:57.189Z,32.96
2023-05-14T14:57:23.715Z,32.90
2023-05-14T14:59:50.311Z,32.80
2023-05-14T15:02:16.853Z,32.81
2023-05-14T15:04:43.664Z,32.76
2023-05-14T15:07:10.293Z,33.16
2023-05-14T15:09:36.889Z,32.78
2023-05-14T15:12:03.555Z,32.76
2023-05-14T15:14:30.050Z,32.47
2023-05-14T15:16:56.633Z,32.48
2023-05-14T15:19:23.128Z,32.65
2023-05-14T15:21:49.967Z,32.77
2023-05-14T15:24:16.457Z,32.58
2023-05-14T15:26:43.128Z,32.64
2023-05-14T15:29:09.825Z,32.13
2023-05-14T15:31:36.478Z,32.06
2023-05-14T15:34:03.588Z,32.05
2023-05-14T15:36:30.088Z,32.26
2023-05-14T15:38:56.575Z,32.46
2023-05-14T15:41:23.069Z,32.08
2023-05-14T15:43:49.547Z,32.21
2023-05-14T15:46:16.109Z,31.54
2023-05-14T15:48:42.574Z,31.60
2023-05-14T15:51:09.082Z,32.08
2023-05-14T15:53:35.589Z,31.38
2023-05-14T15:56:02.843Z,32.16
2023-05-14T15:58:29.359Z,31.88
2023-05-14T16:00:55.992Z,31.76
2023-05-14T16:03:22.443Z,31.29
2023-05-14T16:05:49.059Z,31.46
2023-05-14T16:08:15.508Z,31.28
2023-05-14T16:10:42.045Z,32.17
2023-05-14T16:13:08.513Z,31.18
2023-05-14T16:15:35.026Z,31.33
2023-05-14T16:18:01.578Z,31.49
2023-05-14T16:20:28.188Z,30.82
2023-05-14T16:22:54.702Z,31.18
2023-05-14T16:25:21.209Z,29.91
2023-05-14T16:27:47.649Z,29.62
2023-05-14T16:30:14.257Z,30.29
2023-05-14T16:32:42.057Z,30.11
2023-05-14T16:35:09.114Z,30.10
2023-05-14T16:37:35.856Z,28.59
2023-05-14T16:40:02.347Z,28.16
2023-05-14T16:42:28.874Z,27.61
2023-05-14T16:44:55.309Z,28.70
2023-05-14T16:47:21.743Z,29.82
2023-05-14T16:49:48.506Z,30.64
2023-05-14T16:52:15.290Z,31.10
2023-05-14T16:54:41.723Z,31.05
2023-05-14T16:57:08.194Z,31.30
2023-05-14T16:59:34.630Z,31.71
2023-05-14T17:02:01.275Z,31.71
2023-05-14T17:04:27.813Z,32.71
2023-05-14T17:06:55.221Z,32.34
2023-05-14T17:09:21.701Z,32.28
2023-05-14T17:11:48.149Z,32.52
2023-05-14T17:14:14.865Z,32.92
2023-05-14T17:16:42.320Z,33.41
2023-05-14T17:19:08.865Z,33.39
2023-05-14T17:21:35.493Z,33.55
2023-05-14T17:24:01.975Z,33.38
2023-05-14T17:26:28.486Z,33.90
2023-05-14T17:28:54.938Z,34.48
2023-05-14T17:31:22.273Z,34.46
2023-05-14T17:33:49.181Z,34.84
2023-05-14T17:36:15.757Z,35.56
2023-05-14T17:38:42.189Z,35.38
2023-05-14T17:41:09.608Z,36.17
2023-05-14T17:43:36.175Z,36.42
2023-05-14T17:46:03.472Z,36.96
2023-05-14T17:48:29.950Z,36.78
2023-05-14T17:50:56.482Z,36.87
2023-05-14T17:53:23.070Z,37.63
2023-05-14T17:55:50.123Z,37.77
2023-05-14T17:58:16.690Z,37.85
2023-05-14T18:00:44.022Z,38.02
2023-05-14T18:03:10.722Z,38.68
2023-05-14T18:05:37.328Z,38.58
2023-05-14T18:08:03.956Z,38.89
2023-05-14T18:10:30.521Z,39.72
2023-05-14T18:12:57.057Z,39.67
2023-05-14T18:15:25.528Z,40.11
2023-05-14T18:17:52.798Z,40.02
2023-05-14T18:20:19.660Z,40.26
2023-05-14T18:22:46.161Z,40.62
2023-05-14T18:25:13.567Z,40.93
2023-05-14T18:27:44.338Z,41.18
2023-05-14T18:30:13.593Z,41.37
2023-05-14T18:32:41.618Z,41.70
2023-05-14T18:35:08.540Z,42.36
2023-05-14T18:37:35.244Z,42.53
2023-05-14T18:40:04.467Z,42.29
2023-05-14T18:42:30.987Z,42.73
2023-05-14T18:44:57.509Z,42.49
2023-05-14T18:47:24.073Z,42.63
2023-05-14T18:49:54.844Z,42.63
2023-05-14T18:52:24.735Z,42.90
2023-05-14T18:54:51.330Z,43.25
2023-05-14T18:57:17.956Z,43.96
2023-05-14T18:59:44.403Z,44.22
2023-05-14T19:02:10.969Z,44.52
2023-05-14T19:04:50.780Z,45.03
2023-05-14T19:07:18.166Z,45.00
2023-05-14T19:09:44.711Z,45.21
2023-05-14T19:12:11.196Z,45.91
2023-05-14T19:14:37.682Z,45.92
2023-05-14T19:17:04.715Z,46.35
2023-05-14T19:19:31.473Z,47.14
2023-05-14T19:21:58.101Z,47.11
2023-05-14T19:24:24.775Z,48.24
2023-05-14T19:26:51.326Z,48.17
2023-05-14T19:29:17.948Z,49.21
2023-05-14T19:31:45.032Z,49.51
2023-05-14T19:34:11.604Z,49.81
2023-05-14T19:36:38.196Z,50.01
2023-05-14T19:39:04.682Z,50.20
2023-05-14T19:41:31.297Z,50.96
2023-05-14T19:43:58.017Z,51.86
2023-05-14T19:46:24.686Z,51.95
2023-05-14T19:48:51.285Z,51.66
2023-05-14T19:51:18.023Z,51.61
2023-05-14T19:53:45.157Z,52.50
2023-05-14T19:56:11.757Z,52.35
2023-05-14T19:58:38.238Z,53.73
2023-05-14T20:01:05.243Z,53.58
2023-05-14T20:03:32.194Z,53.56
2023-05-14T20:05:59.048Z,54.16
2023-05-14T20:08:25.587Z,54.69
2023-05-14T20:10:52.152Z,54.38
2023-05-14T20:13:18.784Z,55.07
2023-05-14T20:15:45.327Z,56.59
2023-05-14T20:18:11.969Z,57.17
2023-05-14T20:20:39.971Z,56.20
2023-05-14T20:23:06.675Z,56.69
2023-05-14T20:25:33.431Z,56.84
2023-05-14T20:28:03.384Z,57.17
2023-05-14T20:30:30.004Z,57.53
2023-05-14T20:32:56.682Z,57.75
2023-05-14T20:35:23.573Z,57.88
2023-05-14T20:37:50.284Z,57.56
2023-05-14T20:40:17.016Z,58.85
2023-05-14T20:42:43.561Z,58.59
2023-05-14T20:45:10.962Z,58.94
2023-05-14T20:47:37.723Z,58.42
2023-05-14T20:50:04.793Z,58.85
2023-05-14T20:52:31.346Z,59.80
2023-05-14T20:55:00.106Z,60.87
2023-05-14T20:57:28.224Z,60.58
2023-05-14T20:59:54.784Z,60.22
2023-05-14T21:02:21.472Z,60.40
2023-05-14T21:04:48.125Z,60.60
2023-05-14T21:07:14.809Z,60.54
2023-05-14T21:09:41.365Z,60.18
2023-05-14T21:12:08.265Z,60.21
2023-05-14T21:14:34.774Z,60.53
2023-05-14T21:17:01.332Z,60.47
2023-05-14T21:19:27.823Z,60.47
2023-05-14T21:21:54.300Z,60.54
2023-05-14T21:24:20.817Z,60.77
2023-05-14T21:26:47.787Z,60.63
2023-05-14T21:29:14.226Z,60.48
2023-05-14T21:31:40.919Z,60.04
2023-05-14T21:34:07.389Z,60.00
2023-05-14T21:36:33.926Z,60.57
2023-05-14T21:39:00.411Z,60.98
2023-05-14T21:41:26.974Z,60.32
2023-05-14T21:43:53.407Z,60.20
2023-05-14T21:46:19.986Z,60.20
2023-05-14T21:48:46.585Z,60.36
2023-05-14T21:51:13.205Z,60.91
2023-05-14T21:53:39.672Z,60.89
2023-05-14T21:56:07.107Z,61.08
2023-05-14T21:58:33.685Z,61.88
2023-05-14T22:01:00.355Z,61.88
2023-05-14T22:03:26.903Z,62.04
2023-05-14T22:05:53.525Z,62.41
2023-05-14T22:08:20.044Z,62.88
2023-05-14T22:10:47.123Z,63.97
2023-05-14T22:13:13.662Z,63.86
2023-05-14T22:15:40.725Z,64.15
2023-05-14T22:18:07.270Z,64.98
2023-05-14T22:20:33.877Z,65.40
2023-05-14T22:23:00.501Z,66.68
2023-05-14T22:25:27.361Z,66.61
2023-05-14T22:27:54.099Z,66.03
2023-05-14T22:30:21.102Z,65.56
2023-05-14T22:32:47.702Z,65.81
2023-05-14T22:35:14.243Z,66.44
2023-05-14T22:37:40.718Z,67.22
2023-05-14T22:40:07.823Z,67.03
2023-05-14T22:42:34.350Z,68.02
2023-05-14T22:45:00.806Z,67.99
2023-05-14T22:47:27.533Z,67.96
2023-05-14T22:49:53.997Z,67.97
2023-05-14T22:52:20.450Z,68.09
2023-05-14T22:54:49.536Z,67.95
2023-05-14T22:57:16.638Z,67.68
2023-05-14T22:59:43.514Z,67.60
2023-05-14T23:02:10.412Z,67.69
2023-05-14T23:04:36.992Z,68.84
2023-05-14T23:07:03.528Z,68.74
2023-05-14T23:09:29.987Z,68.40
2023-05-14T23:11:56.464Z,68.84
2023-05-14T23:14:22.945Z,68.49
2023-05-14T23:16:49.434Z,69.12
2023-05-14T23:19:16.183Z,68.96
2023-05-14T23:21:42.970Z,68.90
2023-05-14T23:24:09.514Z,69.93
2023-05-14T23:26:35.941Z,70.59
2023-05-14T23:29:02.424Z,70.21
2023-05-14T23:31:28.903Z,70.50
2023-05-14T23:33:56.796Z,70.52
2023-05-14T23:36:23.624Z,70.68
2023-05-14T23:38:50.381Z,70.75
2023-05-14T23:41:16.800Z,70.46
2023-05-14T23:43:43.616Z,70.40
2023-05-14T23:46:10.574Z,70.76
2023-05-14T23:48:37.422Z,70.75
2023-05-14T23:51:03.926Z,70.93
2023-05-14T23:53:30.371Z,71.52
2023-05-14T23:55:56.970Z,71.09
2023-05-14T23:58:23.826Z,71.71
